createdAt,value
2023-07-24T00:00:52.889Z,57.19
2023-07-24T00:03:33.671Z,57.14
2023-07-24T00:06:03.089Z,57.27
2023-07-24T00:08:31.852Z,57.27
2023-07-24T00:11:00.665Z,57.68
2023-07-24T00:13:29.536Z,57.44
2023-07-24T00:16:01.481Z,57.37
2023-07-24T00:18:33.774Z,57.74
2023-07-24T00:21:02.513Z,57.60
2023-07-24T00:23:31.278Z,57.62
2023-07-24T00:26:02.773Z,57.61
2023-07-24T00:28:31.768Z,57.55
2023-07-24T00:31:01.825Z,57.31
2023-07-24T00:33:30.996Z,57.22
2023-07-24T00:35:59.951Z,57.34
2023-07-24T00:38:30.756Z,57.54
2023-07-24T00:40:59.659Z,57.20
2023-07-24T00:43:28.987Z,57.33
2023-07-24T00:45:58.904Z,57.03
2023-07-24T00:48:28.307Z,56.91
2023-07-24T00:50:58.586Z,56.90
2023-07-24T00:53:27.466Z,56.93
2023-07-24T00:55:56.365Z,56.73
2023-07-24T00:58:27.018Z,56.83
2023-07-24T01:00:55.907Z,56.73
2023-07-24T01:03:33.559Z,56.71
2023-07-24T01:06:04.380Z,56.62
2023-07-24T01:08:33.965Z,56.53
2023-07-24T01:11:09.961Z,56.36
2023-07-24T01:13:43.763Z,56.17
2023-07-24T01:16:15.496Z,56.41
2023-07-24T01:18:46.342Z,56.19
2023-07-24T01:21:23.769Z,56.03
2023-07-24T01:24:02.432Z,55.68
2023-07-24T01:26:34.152Z,55.65
2023-07-24T01:29:03.156Z,55.30
2023-07-24T01:31:31.919Z,55.43
2023-07-24T01:34:00.717Z,55.36
2023-07-24T01:36:30.078Z,55.23
2023-07-24T01:39:01.454Z,54.97
2023-07-24T01:41:31.686Z,54.86
2023-07-24T01:44:01.518Z,54.80
2023-07-24T01:46:33.820Z,54.62
2023-07-24T01:49:04.268Z,54.51
2023-07-24T01:51:35.890Z,54.47
2023-07-24T01:54:04.827Z,54.42
2023-07-24T01:56:40.113Z,54.11
2023-07-24T01:59:08.895Z,53.86
2023-07-24T02:01:37.648Z,53.64
2023-07-24T02:04:06.377Z,53.33
2023-07-24T02:06:37.853Z,53.27
2023-07-24T02:09:06.581Z,53.20
2023-07-24T02:11:38.081Z,52.94
2023-07-24T02:14:06.872Z,52.78
2023-07-24T02:16:36.711Z,52.72
2023-07-24T02:19:08.318Z,52.75
2023-07-24T02:21:37.070Z,52.62
2023-07-24T02:24:09.166Z,52.44
2023-07-24T02:26:38.018Z,52.22
2023-07-24T02:29:06.767Z,52.49
2023-07-24T02:31:36.174Z,52.56
2023-07-24T02:34:05.048Z,52.55
2023-07-24T02:36:35.185Z,52.19
2023-07-24T02:39:04.471Z,52.20
2023-07-24T02:41:36.591Z,52.49
2023-07-24T02:44:05.897Z,51.85
2023-07-24T02:46:34.771Z,52.10
2023-07-24T02:49:03.874Z,52.16
2023-07-24T02:51:32.620Z,52.12
2023-07-24T02:54:03.854Z,51.83
2023-07-24T02:56:32.791Z,52.01
2023-07-24T02:59:01.991Z,52.01
2023-07-24T03:01:30.862Z,52.20
2023-07-24T03:03:59.868Z,52.08
2023-07-24T03:06:29.221Z,52.15
2023-07-24T03:09:01.316Z,51.95
2023-07-24T03:11:30.261Z,52.13
2023-07-24T03:13:59.599Z,52.23
2023-07-24T03:16:31.070Z,52.26
2023-07-24T03:19:00.504Z,52.07
2023-07-24T03:21:30.084Z,51.80
2023-07-24T03:24:01.453Z,52.23
2023-07-24T03:26:30.463Z,51.79
2023-07-24T03:29:02.324Z,52.18
2023-07-24T03:31:31.087Z,52.14
2023-07-24T03:34:00.768Z,51.88
2023-07-24T03:36:32.304Z,52.06
2023-07-24T03:39:01.803Z,52.06
2023-07-24T03:41:31.741Z,52.13
2023-07-24T03:44:03.056Z,52.06
2023-07-24T03:46:32.667Z,52.00
2023-07-24T03:49:02.309Z,51.66
2023-07-24T03:51:33.848Z,51.98
2023-07-24T03:54:02.820Z,51.81
2023-07-24T03:56:33.556Z,51.78
2023-07-24T03:59:02.896Z,52.26
2023-07-24T04:01:33.021Z,52.08
2023-07-24T04:04:04.169Z,51.89
2023-07-24T04:06:35.895Z,51.88
2023-07-24T04:09:04.921Z,52.16
2023-07-24T04:11:34.589Z,52.31
2023-07-24T04:14:05.618Z,52.21
2023-07-24T04:16:35.219Z,51.99
2023-07-24T04:19:04.880Z,52.48
2023-07-24T04:21:38.161Z,51.92
2023-07-24T04:24:09.257Z,52.04
2023-07-24T04:26:41.320Z,52.05
2023-07-24T04:29:10.450Z,52.36
2023-07-24T04:31:39.999Z,52.03
2023-07-24T04:34:13.460Z,52.34
2023-07-24T04:36:45.667Z,51.91
2023-07-24T04:39:22.287Z,51.83
2023-07-24T04:41:51.102Z,51.96
2023-07-24T04:44:19.877Z,52.13
2023-07-24T04:46:49.561Z,52.30
2023-07-24T04:49:19.790Z,52.13
2023-07-24T04:51:49.761Z,51.58
2023-07-24T04:54:19.868Z,51.69
2023-07-24T04:56:51.575Z,51.43
2023-07-24T04:59:22.882Z,50.68
2023-07-24T05:01:51.786Z,50.20
2023-07-24T05:04:22.952Z,49.65
2023-07-24T05:06:51.851Z,49.76
2023-07-24T05:09:21.098Z,49.73
2023-07-24T05:11:49.875Z,49.65
2023-07-24T05:14:23.408Z,49.38
2023-07-24T05:16:51.373Z,49.63
2023-07-24T05:19:22.595Z,49.64
2023-07-24T05:21:51.875Z,49.45
2023-07-24T05:24:23.161Z,49.76
2023-07-24T05:26:51.997Z,49.56
2023-07-24T05:29:21.464Z,49.60
2023-07-24T05:31:50.566Z,49.50
2023-07-24T05:34:23.287Z,49.63
2023-07-24T05:39:22.717Z,49.81
2023-07-24T05:41:52.000Z,49.38
2023-07-24T05:44:23.381Z,49.57
2023-07-24T05:46:52.714Z,49.69
2023-07-24T05:49:26.799Z,49.52
2023-07-24T05:51:57.281Z,49.77
2023-07-24T05:54:26.352Z,49.78
2023-07-24T05:56:55.383Z,49.94
2023-07-24T05:59:24.242Z,49.92
2023-07-24T06:01:53.145Z,49.29
2023-07-24T06:04:22.872Z,49.23
2023-07-24T06:06:51.663Z,49.12
2023-07-24T06:09:22.338Z,48.70
2023-07-24T06:11:51.811Z,48.76
2023-07-24T06:14:21.954Z,49.05
2023-07-24T06:16:50.848Z,49.12
2023-07-24T06:19:23.088Z,48.50
2023-07-24T06:21:52.307Z,48.88
2023-07-24T06:24:25.012Z,49.14
2023-07-24T06:26:53.911Z,49.00
2023-07-24T06:29:26.447Z,49.09
2023-07-24T06:31:55.516Z,48.48
2023-07-24T06:34:24.626Z,48.47
2023-07-24T06:36:53.585Z,48.61
2023-07-24T06:39:23.160Z,48.49
2023-07-24T06:41:53.170Z,48.40
2023-07-24T06:44:22.729Z,48.80
2023-07-24T06:46:51.595Z,48.62
2023-07-24T06:49:21.121Z,48.22
2023-07-24T06:51:49.935Z,48.16
2023-07-24T06:54:18.892Z,47.83
2023-07-24T06:56:47.986Z,48.29
2023-07-24T06:59:18.000Z,48.29
2023-07-24T07:01:46.792Z,47.62
2023-07-24T07:04:16.036Z,48.16
2023-07-24T07:06:45.013Z,47.78
2023-07-24T07:09:14.282Z,47.64
2023-07-24T07:11:43.899Z,47.41
2023-07-24T07:14:14.430Z,47.43
2023-07-24T07:16:45.026Z,46.75
2023-07-24T07:19:14.007Z,47.10
2023-07-24T07:21:43.017Z,47.04
2023-07-24T07:24:11.902Z,46.83
2023-07-24T07:26:40.757Z,46.29
2023-07-24T07:29:10.656Z,45.72
2023-07-24T07:31:39.598Z,45.93
2023-07-24T07:34:11.606Z,45.44
2023-07-24T07:36:40.530Z,45.58
2023-07-24T07:39:10.159Z,45.33
2023-07-24T07:41:39.099Z,45.42
2023-07-24T07:44:07.933Z,45.09
2023-07-24T07:46:36.718Z,44.77
2023-07-24T07:49:08.594Z,44.65
2023-07-24T07:51:37.395Z,44.82
2023-07-24T07:54:07.482Z,44.49
2023-07-24T07:56:37.473Z,44.65
2023-07-24T07:59:06.322Z,44.50
2023-07-24T08:01:40.249Z,44.36
2023-07-24T08:04:09.170Z,44.11
2023-07-24T08:06:40.672Z,44.33
2023-07-24T08:09:09.576Z,43.99
2023-07-24T08:11:38.851Z,44.46
2023-07-24T08:14:13.570Z,43.68
2023-07-24T08:16:42.563Z,44.02
2023-07-24T08:19:13.596Z,43.51
2023-07-24T08:21:42.588Z,43.29
2023-07-24T08:24:11.593Z,43.35
2023-07-24T08:26:40.815Z,42.95
2023-07-24T08:29:13.309Z,43.20
2023-07-24T08:31:43.406Z,42.93
2023-07-24T08:34:12.470Z,42.68
2023-07-24T08:36:41.265Z,42.86
2023-07-24T08:39:10.479Z,42.51
2023-07-24T08:41:41.598Z,42.53
2023-07-24T08:44:10.780Z,42.22
2023-07-24T08:46:42.200Z,42.03
2023-07-24T08:49:13.856Z,41.96
2023-07-24T08:51:44.800Z,41.88
2023-07-24T08:54:17.356Z,41.94
2023-07-24T08:56:49.108Z,41.88
2023-07-24T08:59:18.321Z,41.76
2023-07-24T09:01:47.411Z,41.56
2023-07-24T09:04:16.897Z,41.56
2023-07-24T09:06:46.830Z,41.24
2023-07-24T09:09:16.413Z,41.32
2023-07-24T09:11:51.657Z,41.25
2023-07-24T09:14:25.748Z,40.82
2023-07-24T09:17:09.288Z,40.56
2023-07-24T09:19:46.811Z,40.59
2023-07-24T09:22:20.603Z,40.30
2023-07-24T09:24:52.782Z,39.80
2023-07-24T09:27:25.149Z,39.60
2023-07-24T09:29:54.219Z,39.20
2023-07-24T09:32:25.271Z,39.49
2023-07-24T09:34:54.749Z,39.38
2023-07-24T09:37:28.261Z,39.31
2023-07-24T09:40:00.601Z,39.06
2023-07-24T09:42:33.263Z,39.18
2023-07-24T09:45:02.619Z,39.07
2023-07-24T09:47:55.248Z,39.10
2023-07-24T09:50:25.932Z,38.90
2023-07-24T09:52:57.577Z,38.89
2023-07-24T09:55:35.104Z,38.83
2023-07-24T09:58:04.676Z,38.85
2023-07-24T10:00:34.887Z,38.97
2023-07-24T10:03:04.742Z,38.68
2023-07-24T10:05:34.305Z,38.80
2023-07-24T10:08:03.742Z,38.58
2023-07-24T10:10:35.704Z,38.41
2023-07-24T10:13:06.594Z,38.52
2023-07-24T10:15:36.647Z,38.35
2023-07-24T10:18:07.053Z,38.49
2023-07-24T10:20:36.840Z,38.21
2023-07-24T10:23:07.033Z,37.94
2023-07-24T10:25:41.168Z,37.75
2023-07-24T10:28:12.338Z,37.68
2023-07-24T10:30:42.379Z,37.52
2023-07-24T10:33:14.201Z,37.00
2023-07-24T10:35:46.384Z,37.50
2023-07-24T10:38:16.753Z,37.52
2023-07-24T10:40:47.646Z,37.98
2023-07-24T10:43:21.568Z,37.62
2023-07-24T10:45:54.018Z,37.33
2023-07-24T10:48:26.139Z,37.05
2023-07-24T10:50:55.585Z,37.14
2023-07-24T10:53:27.391Z,36.47
2023-07-24T10:55:56.624Z,36.80
2023-07-24T10:58:29.194Z,36.65
2023-07-24T11:00:59.381Z,36.57
2023-07-24T11:03:29.563Z,36.28
2023-07-24T11:06:00.043Z,35.87
2023-07-24T11:08:29.277Z,35.74
2023-07-24T11:10:59.373Z,35.35
2023-07-24T11:13:30.409Z,35.00
2023-07-24T11:16:05.875Z,34.78
2023-07-24T11:18:53.156Z,34.99
2023-07-24T11:21:24.478Z,34.14
2023-07-24T11:23:54.906Z,34.35
2023-07-24T11:26:26.457Z,34.60
2023-07-24T11:28:55.696Z,34.28
2023-07-24T11:31:25.238Z,34.33
2023-07-24T11:33:55.401Z,34.26
2023-07-24T11:36:25.358Z,33.71
2023-07-24T11:38:54.533Z,33.83
2023-07-24T11:41:27.272Z,33.46
2023-07-24T11:43:55.417Z,33.62
2023-07-24T11:46:25.906Z,33.26
2023-07-24T11:48:57.217Z,33.68
2023-07-24T11:51:27.669Z,33.09
2023-07-24T11:54:08.309Z,32.89
2023-07-24T11:56:37.550Z,32.70
2023-07-24T11:59:13.783Z,32.71
2023-07-24T12:01:48.219Z,32.66
2023-07-24T12:04:19.120Z,32.56
2023-07-24T12:06:48.439Z,32.62
2023-07-24T12:09:17.893Z,32.18
2023-07-24T12:11:47.200Z,32.25
2023-07-24T12:14:16.746Z,32.19
2023-07-24T12:16:45.815Z,32.08
2023-07-24T12:19:14.643Z,32.31
2023-07-24T12:21:43.772Z,31.96
2023-07-24T12:24:12.570Z,32.03
2023-07-24T12:26:41.385Z,31.53
2023-07-24T12:29:10.192Z,31.67
2023-07-24T12:31:39.275Z,31.75
2023-07-24T12:34:08.235Z,31.78
2023-07-24T12:36:37.122Z,31.79
2023-07-24T12:39:06.200Z,31.94
2023-07-24T12:41:35.085Z,31.90
2023-07-24T12:44:04.108Z,31.77
2023-07-24T12:46:33.103Z,31.70
2023-07-24T12:49:03.093Z,31.83
2023-07-24T12:51:32.409Z,32.03
2023-07-24T12:54:06.942Z,32.00
2023-07-24T12:56:48.926Z,32.22
2023-07-24T12:59:18.225Z,32.03
2023-07-24T13:01:47.247Z,31.96
2023-07-24T13:04:18.554Z,32.41
2023-07-24T13:06:47.795Z,32.14
2023-07-24T13:09:17.064Z,32.39
2023-07-24T13:11:48.339Z,32.24
2023-07-24T13:14:17.729Z,32.41
2023-07-24T13:16:46.727Z,32.24
2023-07-24T13:19:15.795Z,32.25
2023-07-24T13:21:46.406Z,32.59
2023-07-24T13:24:15.606Z,32.35
2023-07-24T13:26:45.210Z,31.80
2023-07-24T13:29:14.205Z,31.66
2023-07-24T13:31:43.196Z,31.60
2023-07-24T13:34:12.169Z,31.69
2023-07-24T13:36:40.993Z,31.77
2023-07-24T13:39:09.967Z,31.67
2023-07-24T13:41:38.841Z,31.73
2023-07-24T13:44:08.216Z,31.61
2023-07-24T13:46:40.077Z,31.56
2023-07-24T13:49:09.744Z,31.55
2023-07-24T13:51:38.538Z,31.42
2023-07-24T13:54:07.391Z,31.46
2023-07-24T13:56:36.545Z,31.46
2023-07-24T13:59:05.534Z,30.95
2023-07-24T14:01:35.020Z,30.75
2023-07-24T14:04:04.638Z,30.56
2023-07-24T14:06:33.916Z,30.67
2023-07-24T14:09:03.890Z,30.31
2023-07-24T14:11:32.938Z,30.61
2023-07-24T14:14:02.175Z,30.36
2023-07-24T14:16:31.157Z,30.29
2023-07-24T14:19:00.027Z,30.41
2023-07-24T14:21:29.155Z,30.17
2023-07-24T14:23:58.726Z,30.57
2023-07-24T14:26:28.014Z,30.31
2023-07-24T14:28:57.062Z,30.26
2023-07-24T14:31:26.769Z,30.07
2023-07-24T14:33:55.898Z,29.83
2023-07-24T14:36:28.704Z,29.98
2023-07-24T14:38:56.699Z,30.13
2023-07-24T14:41:25.677Z,30.14
2023-07-24T14:43:54.499Z,30.10
2023-07-24T14:46:24.126Z,30.22
2023-07-24T14:48:53.194Z,30.37
2023-07-24T14:51:24.439Z,30.41
2023-07-24T14:53:53.280Z,30.34
2023-07-24T14:56:22.779Z,30.32
2023-07-24T14:58:51.682Z,30.52
2023-07-24T15:01:20.610Z,30.56
2023-07-24T15:03:49.619Z,30.59
2023-07-24T15:06:18.517Z,30.76
2023-07-24T15:08:47.303Z,30.80
2023-07-24T15:11:16.238Z,31.06
2023-07-24T15:13:44.974Z,31.21
2023-07-24T15:16:13.862Z,30.89
2023-07-24T15:18:43.238Z,31.15
2023-07-24T15:21:12.523Z,31.21
2023-07-24T15:23:41.466Z,31.13
2023-07-24T15:26:10.370Z,31.21
2023-07-24T15:28:39.172Z,31.11
2023-07-24T15:31:12.395Z,31.07
2023-07-24T15:33:41.552Z,31.14
2023-07-24T15:36:10.428Z,31.29
2023-07-24T15:38:39.324Z,30.99
2023-07-24T15:41:08.286Z,31.14
2023-07-24T15:43:37.084Z,30.89
2023-07-24T15:46:06.034Z,30.98
2023-07-24T15:48:35.076Z,30.84
2023-07-24T15:51:04.276Z,30.94
2023-07-24T15:53:33.292Z,31.00
2023-07-24T15:56:02.358Z,31.01
2023-07-24T15:58:31.386Z,30.85
2023-07-24T16:01:00.462Z,31.05
2023-07-24T16:03:29.424Z,31.11
2023-07-24T16:05:58.568Z,31.13
2023-07-24T16:08:27.404Z,31.13
2023-07-24T16:10:56.557Z,31.71
2023-07-24T16:13:25.895Z,31.23
2023-07-24T16:15:55.130Z,31.20
2023-07-24T16:18:25.040Z,31.20
2023-07-24T16:20:55.740Z,31.60
2023-07-24T16:23:25.559Z,31.38
2023-07-24T16:25:54.675Z,31.46
2023-07-24T16:28:24.828Z,31.40
2023-07-24T16:30:57.580Z,31.21
2023-07-24T16:33:26.697Z,31.59
2023-07-24T16:35:55.766Z,31.64
2023-07-24T16:38:28.716Z,31.71
2023-07-24T16:40:57.770Z,31.66
2023-07-24T16:43:26.895Z,31.78
2023-07-24T16:48:27.650Z,31.90
2023-07-24T16:50:56.615Z,31.93
2023-07-24T16:53:25.627Z,31.94
2023-07-24T16:55:54.576Z,31.89
2023-07-24T16:58:24.036Z,32.11
2023-07-24T17:00:53.775Z,32.08
2023-07-24T17:03:23.919Z,32.10
2023-07-24T17:05:53.156Z,32.26
2023-07-24T17:08:24.183Z,32.37
2023-07-24T17:10:52.972Z,32.39
2023-07-24T17:13:22.289Z,32.48
2023-07-24T17:15:51.799Z,32.63
2023-07-24T17:18:24.587Z,32.55
2023-07-24T17:20:53.808Z,32.62
2023-07-24T17:23:24.555Z,32.64
2023-07-24T17:25:53.769Z,32.87
2023-07-24T17:28:25.585Z,32.79
2023-07-24T17:30:54.587Z,32.93
2023-07-24T17:33:26.276Z,33.03
2023-07-24T17:35:55.716Z,33.04
2023-07-24T17:38:27.245Z,33.11
2023-07-24T17:40:56.558Z,33.25
2023-07-24T17:43:25.319Z,33.32
2023-07-24T17:45:54.518Z,33.55
2023-07-24T17:48:26.234Z,33.61
2023-07-24T17:50:55.808Z,33.67
2023-07-24T17:53:26.543Z,33.70
2023-07-24T17:55:55.897Z,33.67
2023-07-24T17:58:25.129Z,33.63
2023-07-24T18:00:54.240Z,33.77
2023-07-24T18:03:23.549Z,33.87
2023-07-24T18:05:52.585Z,34.04
2023-07-24T18:08:26.140Z,34.08
2023-07-24T18:11:02.579Z,34.28
2023-07-24T18:13:31.410Z,34.25
2023-07-24T18:16:00.878Z,34.30
2023-07-24T18:18:30.249Z,34.38
2023-07-24T18:21:08.281Z,34.46
2023-07-24T18:23:38.748Z,34.66
2023-07-24T18:26:09.297Z,34.85
2023-07-24T18:28:40.757Z,34.83
2023-07-24T18:31:13.046Z,35.05
2023-07-24T18:33:42.554Z,35.30
2023-07-24T18:36:11.794Z,35.27
2023-07-24T18:38:42.442Z,35.85
2023-07-24T18:41:11.358Z,35.61
2023-07-24T18:43:41.490Z,35.99
2023-07-24T18:46:13.054Z,35.76
2023-07-24T18:48:43.606Z,36.13
2023-07-24T18:51:13.648Z,36.43
2023-07-24T18:53:43.026Z,36.66
2023-07-24T18:56:11.944Z,36.80
2023-07-24T18:58:44.084Z,36.76
2023-07-24T19:01:15.247Z,37.01
2023-07-24T19:03:44.606Z,37.44
2023-07-24T19:06:19.303Z,37.56
2023-07-24T19:08:49.568Z,37.42
2023-07-24T19:11:21.722Z,37.57
2023-07-24T19:13:51.388Z,37.75
2023-07-24T19:16:20.424Z,37.70
2023-07-24T19:18:49.463Z,38.06
2023-07-24T19:21:19.058Z,38.02
2023-07-24T19:23:48.121Z,38.34
2023-07-24T19:26:21.273Z,38.70
2023-07-24T19:28:51.458Z,38.86
2023-07-24T19:31:20.596Z,38.66
2023-07-24T19:33:50.134Z,39.05
2023-07-24T19:36:19.930Z,39.35
2023-07-24T19:38:48.944Z,39.38
2023-07-24T19:41:23.693Z,39.22
2023-07-24T19:43:52.602Z,39.33
2023-07-24T19:46:23.185Z,39.81
2023-07-24T19:48:51.953Z,40.20
2023-07-24T19:51:21.063Z,40.19
2023-07-24T19:53:52.105Z,40.15
2023-07-24T19:56:24.736Z,39.85
2023-07-24T19:58:54.077Z,39.92
2023-07-24T20:01:25.192Z,40.46
2023-07-24T20:03:54.028Z,40.70
2023-07-24T20:06:26.339Z,40.52
2023-07-24T20:08:55.153Z,40.82
2023-07-24T20:11:25.682Z,41.10
2023-07-24T20:13:54.527Z,41.27
2023-07-24T20:16:26.337Z,41.41
2023-07-24T20:18:55.325Z,41.56
2023-07-24T20:21:29.644Z,41.71
2023-07-24T20:24:09.080Z,41.69
2023-07-24T20:26:37.978Z,42.27
2023-07-24T20:29:07.050Z,42.00
2023-07-24T20:31:36.034Z,42.20
2023-07-24T20:34:04.965Z,42.76
2023-07-24T20:36:33.845Z,43.30
2023-07-24T20:39:02.732Z,43.54
2023-07-24T20:41:31.746Z,43.61
2023-07-24T20:44:00.682Z,43.91
2023-07-24T20:46:30.416Z,44.44
2023-07-24T20:48:59.212Z,44.03
2023-07-24T20:51:28.142Z,44.48
2023-07-24T20:53:59.084Z,44.59
2023-07-24T20:56:27.869Z,45.17
2023-07-24T20:58:56.812Z,44.76
2023-07-24T21:01:26.628Z,44.84
2023-07-24T21:03:56.387Z,45.01
2023-07-24T21:06:25.281Z,45.62
2023-07-24T21:08:54.139Z,45.53
2023-07-24T21:11:24.302Z,45.45
2023-07-24T21:13:53.145Z,45.67
2023-07-24T21:16:22.970Z,45.65
2023-07-24T21:18:52.478Z,45.83
2023-07-24T21:21:21.792Z,46.33
2023-07-24T21:23:51.089Z,45.99
2023-07-24T21:26:22.416Z,46.55
2023-07-24T21:28:51.265Z,46.55
2023-07-24T21:31:20.158Z,46.44
2023-07-24T21:33:49.116Z,46.84
2023-07-24T21:36:20.229Z,47.07
2023-07-24T21:38:49.103Z,46.80
2023-07-24T21:41:20.405Z,47.28
2023-07-24T21:43:52.548Z,47.35
2023-07-24T21:46:23.906Z,47.47
2023-07-24T21:48:52.873Z,47.92
2023-07-24T21:51:24.186Z,47.44
2023-07-24T21:53:52.973Z,47.76
2023-07-24T21:56:24.478Z,48.18
2023-07-24T21:58:56.676Z,48.38
2023-07-24T22:01:25.598Z,48.12
2023-07-24T22:03:54.467Z,48.18
2023-07-24T22:06:24.291Z,48.59
2023-07-24T22:08:53.220Z,48.26
2023-07-24T22:11:25.351Z,48.54
2023-07-24T22:13:54.460Z,48.57
2023-07-24T22:16:23.653Z,48.73
2023-07-24T22:18:52.553Z,49.27
2023-07-24T22:21:21.469Z,49.51
2023-07-24T22:23:51.051Z,49.47
2023-07-24T22:26:20.453Z,49.57
2023-07-24T22:28:49.379Z,49.48
2023-07-24T22:31:18.100Z,49.50
2023-07-24T22:33:46.898Z,49.68
2023-07-24T22:36:15.690Z,50.35
2023-07-24T22:38:44.529Z,49.99
2023-07-24T22:41:14.204Z,49.60
2023-07-24T22:43:42.930Z,50.39
2023-07-24T22:46:11.886Z,50.18
2023-07-24T22:48:40.623Z,50.05
2023-07-24T22:51:09.966Z,50.69
2023-07-24T22:53:38.814Z,50.45
2023-07-24T22:56:09.507Z,51.03
2023-07-24T22:59:16.930Z,50.42
2023-07-24T23:01:46.029Z,50.70
2023-07-24T23:04:15.589Z,51.04
2023-07-24T23:06:44.424Z,51.32
2023-07-24T23:09:13.837Z,51.22
2023-07-24T23:11:42.643Z,51.12
2023-07-24T23:14:11.455Z,51.43
2023-07-24T23:16:40.958Z,51.19
2023-07-24T23:19:10.185Z,51.18
2023-07-24T23:21:39.208Z,51.49
2023-07-24T23:24:08.536Z,51.77
2023-07-24T23:26:37.465Z,51.44
2023-07-24T23:29:07.113Z,51.74
2023-07-24T23:31:36.328Z,51.70
2023-07-24T23:34:05.661Z,52.02
2023-07-24T23:36:34.571Z,51.74
2023-07-24T23:39:03.543Z,52.02
2023-07-24T23:41:33.098Z,52.58
2023-07-24T23:44:02.299Z,52.44
2023-07-24T23:46:36.485Z,52.77
2023-07-24T23:49:05.722Z,52.24
2023-07-24T23:51:34.874Z,52.95
2023-07-24T23:54:04.144Z,53.05
2023-07-24T23:56:33.022Z,53.07
2023-07-24T23:59:01.898Z,52.92
